createdAt,value
2023-03-17T00:01:09.822Z,241.15
2023-03-17T00:05:24.207Z,240.30
2023-03-17T00:09:28.890Z,240.60
2023-03-17T00:13:32.142Z,241.00
2023-03-17T00:17:36.568Z,238.25
2023-03-17T00:21:40.179Z,236.60
2023-03-17T00:33:53.999Z,240.00
2023-03-17T00:37:59.527Z,238.50
2023-03-17T00:42:04.442Z,242.85
2023-03-17T00:46:13.561Z,241.20
2023-03-17T00:50:18.772Z,244.75
2023-03-17T00:54:22.072Z,243.15
2023-03-17T00:58:28.884Z,242.90
2023-03-17T01:02:33.010Z,241.60
2023-03-17T01:06:35.996Z,239.80
2023-03-17T01:10:39.220Z,241.70
2023-03-17T01:14:43.738Z,241.13
2023-03-17T01:18:46.826Z,241.70
2023-03-17T01:22:50.567Z,242.40
2023-03-17T01:26:53.537Z,239.90
2023-03-17T01:30:57.921Z,241.70
2023-03-17T01:35:00.970Z,240.45
2023-03-17T01:39:05.466Z,239.60
2023-03-17T01:43:19.876Z,238.95
2023-03-17T01:47:26.622Z,240.60
2023-03-17T01:51:34.453Z,236.70
2023-03-17T01:55:37.950Z,237.60
2023-03-17T01:59:46.136Z,239.23
2023-03-17T02:03:52.016Z,239.20
2023-03-17T02:07:55.681Z,236.65
2023-03-17T02:12:01.192Z,236.82
2023-03-17T02:16:04.271Z,238.27
2023-03-17T02:20:45.736Z,237.15
2023-03-17T02:24:52.687Z,237.90
2023-03-17T02:28:55.749Z,234.25
2023-03-17T02:32:58.757Z,237.80
2023-03-17T02:37:01.810Z,236.70
2023-03-17T02:41:09.790Z,238.20
2023-03-17T02:45:14.346Z,237.10
2023-03-17T02:49:18.452Z,234.60
2023-03-17T02:53:23.405Z,237.60
2023-03-17T02:57:27.851Z,237.40
2023-03-17T03:01:30.970Z,232.75
2023-03-17T03:05:34.086Z,234.10
2023-03-17T03:09:37.403Z,235.03
2023-03-17T03:13:42.210Z,235.65
2023-03-17T03:17:45.570Z,235.30
2023-03-17T03:21:48.521Z,232.68
2023-03-17T03:25:51.534Z,235.35
2023-03-17T03:29:56.916Z,235.30
2023-03-17T03:33:59.857Z,232.23
2023-03-17T03:38:03.120Z,234.50
2023-03-17T03:42:07.057Z,235.10
2023-03-17T03:46:11.540Z,236.77
2023-03-17T03:50:14.939Z,233.70
2023-03-17T03:54:17.921Z,236.90
2023-03-17T03:58:21.014Z,235.70
2023-03-17T04:02:25.600Z,227.90
2023-03-17T04:06:28.778Z,233.02
2023-03-17T04:10:32.080Z,230.60
2023-03-17T04:14:35.378Z,230.55
2023-03-17T04:18:39.892Z,228.80
2023-03-17T04:22:43.500Z,220.40
2023-03-17T04:26:46.779Z,216.45
2023-03-17T04:30:49.795Z,210.97
2023-03-17T04:34:54.201Z,212.73
2023-03-17T04:38:57.148Z,212.00
2023-03-17T04:43:02.953Z,212.00
2023-03-17T04:47:06.683Z,211.90
2023-03-17T04:51:11.961Z,208.25
2023-03-17T04:55:15.007Z,211.35
2023-03-17T04:59:18.000Z,211.65
2023-03-17T05:03:28.649Z,210.60
2023-03-17T05:07:34.198Z,210.40
2023-03-17T05:11:37.362Z,210.20
2023-03-17T05:15:40.727Z,210.77
2023-03-17T05:19:43.898Z,211.03
2023-03-17T05:23:48.234Z,210.90
2023-03-17T05:27:51.374Z,211.05
2023-03-17T05:31:56.459Z,210.25
2023-03-17T05:35:59.544Z,208.40
2023-03-17T05:40:04.038Z,209.50
2023-03-17T05:44:07.116Z,210.70
2023-03-17T05:48:10.099Z,209.95
2023-03-17T05:52:13.157Z,208.10
2023-03-17T05:56:17.510Z,208.30
2023-03-17T06:00:21.793Z,209.50
2023-03-17T06:04:24.737Z,210.40
2023-03-17T06:08:28.748Z,210.27
2023-03-17T06:12:33.111Z,210.53
2023-03-17T06:16:36.751Z,211.30
2023-03-17T06:20:39.776Z,210.40
2023-03-17T06:24:42.752Z,207.35
2023-03-17T06:28:47.124Z,208.43
2023-03-17T06:32:50.339Z,206.10
2023-03-17T06:36:54.042Z,206.75
2023-03-17T06:40:57.967Z,202.70
2023-03-17T06:45:02.360Z,204.60
2023-03-17T06:49:05.624Z,200.97
2023-03-17T06:53:08.817Z,200.90
2023-03-17T06:57:12.489Z,201.30
2023-03-17T07:01:17.833Z,206.55
2023-03-17T07:05:20.954Z,200.70
2023-03-17T07:09:23.942Z,201.57
2023-03-17T07:13:27.325Z,200.75
2023-03-17T07:17:31.790Z,198.23
2023-03-17T07:21:34.826Z,197.80
2023-03-17T07:25:39.224Z,196.90
2023-03-17T07:29:42.205Z,197.80
2023-03-17T07:33:47.003Z,195.10
2023-03-17T07:37:50.128Z,228.85
2023-03-17T07:41:55.369Z,216.90
2023-03-17T07:45:59.056Z,219.70
2023-03-17T07:50:03.675Z,221.03
2023-03-17T07:54:06.731Z,204.75
2023-03-17T07:58:10.605Z,222.30
2023-03-17T08:02:16.885Z,214.05
2023-03-17T08:06:21.685Z,220.25
2023-03-17T08:10:24.705Z,224.30
2023-03-17T08:14:29.821Z,214.63
2023-03-17T08:18:32.822Z,216.40
2023-03-17T08:22:37.273Z,221.82
2023-03-17T08:26:40.333Z,220.75
2023-03-17T08:30:44.774Z,229.90
2023-03-17T08:34:48.485Z,227.30
2023-03-17T08:38:53.388Z,226.30
2023-03-17T08:43:05.454Z,222.60
2023-03-17T08:47:08.685Z,224.20
2023-03-17T08:51:12.483Z,225.35
2023-03-17T08:55:17.783Z,224.40
2023-03-17T08:59:20.787Z,227.13
2023-03-17T09:03:23.753Z,230.40
2023-03-17T09:07:26.791Z,228.70
2023-03-17T09:11:32.739Z,233.50
2023-03-17T09:15:36.781Z,239.40
2023-03-17T09:19:40.484Z,243.10
2023-03-17T09:23:44.278Z,242.30
